sensor_id;sensor_type;location;lat;lon;timestamp;temperature;humidity
40808;DHT22;26523;52.504;13.498;2024-01-10T00:02:00;-8.60;99.90
40808;DHT22;26523;52.504;13.498;2024-01-10T00:04:26;-8.70;99.90
40808;DHT22;26523;52.504;13.498;2024-01-10T00:06:52;-8.60;99.90
40808;DHT22;26523;52.504;13.498;2024-01-10T00:09:17;-8.60;99.90
40808;DHT22;26523;52.504;13.498;2024-01-10T00:11:43;-8.60;99.90
40808;DHT22;26523;52.504;13.498;2024-01-10T00:14:09;-8.70;99.90
40808;DHT22;26523;52.504;13.498;2024-01-10T00:16:34;-8.80;99.90
40808;DHT22;26523;52.504;13.498;2024-01-10T00:19:00;-8.70;99.90
40808;DHT22;26523;52.504;13.498;2024-01-10T00:21:26;-8.80;99.90
40808;DHT22;26523;52.504;13.498;2024-01-10T00:23:52;-8.70;99.90
40808;DHT22;26523;52.504;13.498;2024-01-10T00:26:18;-8.80;99.90
40808;DHT22;26523;52.504;13.498;2024-01-10T00:28:43;-8.80;99.90
40808;DHT22;26523;52.504;13.498;2024-01-10T00:31:12;-8.80;99.90
40808;DHT22;26523;52.504;13.498;2024-01-10T00:33:38;-8.80;99.90
40808;DHT22;26523;52.504;13.498;2024-01-10T00:36:04;-8.80;99.90
40808;DHT22;26523;52.504;13.498;2024-01-10T00:38:29;-8.80;99.90
40808;DHT22;26523;52.504;13.498;2024-01-10T00:40:55;-8.80;99.90
40808;DHT22;26523;52.504;13.498;2024-01-10T00:43:22;-8.80;99.90
40808;DHT22;26523;52.504;13.498;2024-01-10T00:45:47;-8.80;99.90
40808;DHT22;26523;52.504;13.498;2024-01-10T00:48:13;-8.80;99.90
40808;DHT22;26523;52.504;13.498;2024-01-10T00:50:39;-8.80;99.90
40808;DHT22;26523;52.504;13.498;2024-01-10T00:53:04;-8.90;99.90
40808;DHT22;26523;52.504;13.498;2024-01-10T00:55:30;-8.90;99.90
40808;DHT22;26523;52.504;13.498;2024-01-10T00:57:55;-8.80;99.90
40808;DHT22;26523;52.504;13.498;2024-01-10T01:00:21;-8.80;99.90
40808;DHT22;26523;52.504;13.498;2024-01-10T01:02:47;-8.80;99.90
40808;DHT22;26523;52.504;13.498;2024-01-10T01:05:12;-8.80;99.90
40808;DHT22;26523;52.504;13.498;2024-01-10T01:07:38;-8.80;99.90
40808;DHT22;26523;52.504;13.498;2024-01-10T01:10:05;-8.80;99.90
40808;DHT22;26523;52.504;13.498;2024-01-10T01:12:31;-8.90;99.90
40808;DHT22;26523;52.504;13.498;2024-01-10T01:14:56;-8.90;99.90
40808;DHT22;26523;52.504;13.498;2024-01-10T01:17:22;-8.90;99.90
40808;DHT22;26523;52.504;13.498;2024-01-10T01:19:48;-8.90;99.90
40808;DHT22;26523;52.504;13.498;2024-01-10T01:22:14;-8.90;99.90
40808;DHT22;26523;52.504;13.498;2024-01-10T01:24:39;-8.90;99.90
40808;DHT22;26523;52.504;13.498;2024-01-10T01:27:05;-8.90;99.90
40808;DHT22;26523;52.504;13.498;2024-01-10T01:29:31;-8.80;99.90
40808;DHT22;26523;52.504;13.498;2024-01-10T01:31:56;-8.90;99.90
40808;DHT22;26523;52.504;13.498;2024-01-10T01:34:22;-8.90;99.90
40808;DHT22;26523;52.504;13.498;2024-01-10T01:36:48;-8.90;99.90
40808;DHT22;26523;52.504;13.498;2024-01-10T01:39:14;-8.90;99.90
40808;DHT22;26523;52.504;13.498;2024-01-10T01:41:40;-8.90;99.90
40808;DHT22;26523;52.504;13.498;2024-01-10T01:44:05;-8.90;99.90
40808;DHT22;26523;52.504;13.498;2024-01-10T01:46:32;-9.00;99.90
40808;DHT22;26523;52.504;13.498;2024-01-10T01:48:58;-9.00;99.90
40808;DHT22;26523;52.504;13.498;2024-01-10T01:51:26;-9.00;99.90
40808;DHT22;26523;52.504;13.498;2024-01-10T01:53:53;-9.00;99.90
40808;DHT22;26523;52.504;13.498;2024-01-10T01:56:20;-9.00;99.90
40808;DHT22;26523;52.504;13.498;2024-01-10T01:58:46;-9.00;99.90
40808;DHT22;26523;52.504;13.498;2024-01-10T02:01:14;-9.00;99.90
40808;DHT22;26523;52.504;13.498;2024-01-10T02:03:40;-9.10;99.90
40808;DHT22;26523;52.504;13.498;2024-01-10T02:06:06;-9.10;99.90
40808;DHT22;26523;52.504;13.498;2024-01-10T02:08:33;-9.10;99.90
40808;DHT22;26523;52.504;13.498;2024-01-10T02:11:02;-9.20;99.90
40808;DHT22;26523;52.504;13.498;2024-01-10T02:13:29;-9.10;99.90
40808;DHT22;26523;52.504;13.498;2024-01-10T02:15:54;-9.10;99.90
40808;DHT22;26523;52.504;13.498;2024-01-10T02:18:20;-9.00;99.90
40808;DHT22;26523;52.504;13.498;2024-01-10T02:20:46;-9.00;99.90
40808;DHT22;26523;52.504;13.498;2024-01-10T02:23:12;-9.00;99.90
40808;DHT22;26523;52.504;13.498;2024-01-10T02:25:40;-8.90;99.90
40808;DHT22;26523;52.504;13.498;2024-01-10T02:28:06;-9.00;99.90
40808;DHT22;26523;52.504;13.498;2024-01-10T02:30:32;-9.00;99.90
40808;DHT22;26523;52.504;13.498;2024-01-10T02:32:58;-9.00;99.90
40808;DHT22;26523;52.504;13.498;2024-01-10T02:35:23;-8.90;99.90
40808;DHT22;26523;52.504;13.498;2024-01-10T02:37:49;-8.90;99.90
40808;DHT22;26523;52.504;13.498;2024-01-10T02:40:17;-8.90;99.90
40808;DHT22;26523;52.504;13.498;2024-01-10T02:42:43;-8.90;99.90
40808;DHT22;26523;52.504;13.498;2024-01-10T02:45:09;-9.00;99.90
40808;DHT22;26523;52.504;13.498;2024-01-10T02:47:34;-9.00;99.90
40808;DHT22;26523;52.504;13.498;2024-01-10T02:50:01;-8.90;99.90
40808;DHT22;26523;52.504;13.498;2024-01-10T02:52:27;-8.90;99.90
40808;DHT22;26523;52.504;13.498;2024-01-10T02:54:53;-8.90;99.90
40808;DHT22;26523;52.504;13.498;2024-01-10T02:57:18;-8.90;99.90
40808;DHT22;26523;52.504;13.498;2024-01-10T02:59:44;-8.90;99.90
40808;DHT22;26523;52.504;13.498;2024-01-10T03:02:10;-8.90;99.90
40808;DHT22;26523;52.504;13.498;2024-01-10T03:04:35;-8.90;99.90
40808;DHT22;26523;52.504;13.498;2024-01-10T03:07:01;-8.90;99.90
40808;DHT22;26523;52.504;13.498;2024-01-10T03:09:27;-8.90;99.90
40808;DHT22;26523;52.504;13.498;2024-01-10T03:11:52;-8.80;99.90
40808;DHT22;26523;52.504;13.498;2024-01-10T03:14:18;-8.80;99.90
40808;DHT22;26523;52.504;13.498;2024-01-10T03:16:44;-8.80;99.90
40808;DHT22;26523;52.504;13.498;2024-01-10T03:19:09;-8.80;99.90
40808;DHT22;26523;52.504;13.498;2024-01-10T03:21:35;-8.90;99.90
40808;DHT22;26523;52.504;13.498;2024-01-10T03:24:01;-8.90;99.90
40808;DHT22;26523;52.504;13.498;2024-01-10T03:26:27;-8.90;99.90
40808;DHT22;26523;52.504;13.498;2024-01-10T03:28:54;-8.90;99.90
40808;DHT22;26523;52.504;13.498;2024-01-10T03:31:20;-8.90;99.90
40808;DHT22;26523;52.504;13.498;2024-01-10T03:33:46;-8.90;99.90
40808;DHT22;26523;52.504;13.498;2024-01-10T03:36:13;-9.00;99.90
40808;DHT22;26523;52.504;13.498;2024-01-10T03:38:39;-8.90;99.90
40808;DHT22;26523;52.504;13.498;2024-01-10T03:41:05;-9.00;99.90
40808;DHT22;26523;52.504;13.498;2024-01-10T03:43:30;-9.00;99.90
40808;DHT22;26523;52.504;13.498;2024-01-10T03:45:57;-9.00;99.90
40808;DHT22;26523;52.504;13.498;2024-01-10T03:48:23;-9.10;99.90
40808;DHT22;26523;52.504;13.498;2024-01-10T03:50:48;-9.00;99.90
40808;DHT22;26523;52.504;13.498;2024-01-10T03:53:14;-9.00;99.90
40808;DHT22;26523;52.504;13.498;2024-01-10T03:55:40;-8.90;99.90
40808;DHT22;26523;52.504;13.498;2024-01-10T03:58:05;-8.90;99.90
40808;DHT22;26523;52.504;13.498;2024-01-10T04:00:31;-9.00;99.90
40808;DHT22;26523;52.504;13.498;2024-01-10T04:02:57;-9.00;99.90
40808;DHT22;26523;52.504;13.498;2024-01-10T04:05:23;-8.90;99.90
40808;DHT22;26523;52.504;13.498;2024-01-10T04:07:53;-8.90;99.90
40808;DHT22;26523;52.504;13.498;2024-01-10T04:10:18;-8.90;99.90
40808;DHT22;26523;52.504;13.498;2024-01-10T04:12:44;-8.90;99.90
40808;DHT22;26523;52.504;13.498;2024-01-10T04:15:11;-8.90;99.90
40808;DHT22;26523;52.504;13.498;2024-01-10T04:17:37;-9.00;99.90
40808;DHT22;26523;52.504;13.498;2024-01-10T04:20:04;-9.00;99.90
40808;DHT22;26523;52.504;13.498;2024-01-10T04:22:30;-9.00;99.90
40808;DHT22;26523;52.504;13.498;2024-01-10T04:25:01;-9.00;99.90
40808;DHT22;26523;52.504;13.498;2024-01-10T04:27:27;-9.10;99.90
40808;DHT22;26523;52.504;13.498;2024-01-10T04:29:53;-9.00;99.90
40808;DHT22;26523;52.504;13.498;2024-01-10T04:32:19;-8.90;99.90
40808;DHT22;26523;52.504;13.498;2024-01-10T04:34:45;-9.00;99.90
40808;DHT22;26523;52.504;13.498;2024-01-10T04:37:11;-9.10;99.90
40808;DHT22;26523;52.504;13.498;2024-01-10T04:39:37;-9.10;99.90
40808;DHT22;26523;52.504;13.498;2024-01-10T04:42:08;-9.00;99.90
40808;DHT22;26523;52.504;13.498;2024-01-10T04:44:34;-9.00;99.90
40808;DHT22;26523;52.504;13.498;2024-01-10T04:46:59;-9.00;99.90
40808;DHT22;26523;52.504;13.498;2024-01-10T04:49:25;-9.00;99.90
40808;DHT22;26523;52.504;13.498;2024-01-10T04:51:50;-9.10;99.90
40808;DHT22;26523;52.504;13.498;2024-01-10T04:54:16;-9.10;99.90
40808;DHT22;26523;52.504;13.498;2024-01-10T04:56:42;-9.10;99.90
40808;DHT22;26523;52.504;13.498;2024-01-10T04:59:08;-9.10;99.90
40808;DHT22;26523;52.504;13.498;2024-01-10T05:01:34;-9.10;99.90
40808;DHT22;26523;52.504;13.498;2024-01-10T05:04:00;-9.00;99.90
40808;DHT22;26523;52.504;13.498;2024-01-10T05:06:26;-9.00;99.90
40808;DHT22;26523;52.504;13.498;2024-01-10T05:08:51;-9.00;99.90
40808;DHT22;26523;52.504;13.498;2024-01-10T05:11:17;-9.00;99.90
40808;DHT22;26523;52.504;13.498;2024-01-10T05:13:43;-9.10;99.90
40808;DHT22;26523;52.504;13.498;2024-01-10T05:16:09;-9.10;99.90
40808;DHT22;26523;52.504;13.498;2024-01-10T05:18:34;-9.10;99.90
40808;DHT22;26523;52.504;13.498;2024-01-10T05:21:02;-9.10;99.90
40808;DHT22;26523;52.504;13.498;2024-01-10T05:23:29;-9.10;99.90
40808;DHT22;26523;52.504;13.498;2024-01-10T05:25:55;-9.20;99.90
40808;DHT22;26523;52.504;13.498;2024-01-10T05:28:20;-9.20;99.90
40808;DHT22;26523;52.504;13.498;2024-01-10T05:30:46;-9.20;99.90
40808;DHT22;26523;52.504;13.498;2024-01-10T05:33:12;-9.20;99.90
40808;DHT22;26523;52.504;13.498;2024-01-10T05:35:41;-9.20;99.90
40808;DHT22;26523;52.504;13.498;2024-01-10T05:38:07;-9.20;99.90
40808;DHT22;26523;52.504;13.498;2024-01-10T05:40:32;-9.20;99.90
40808;DHT22;26523;52.504;13.498;2024-01-10T05:42:58;-9.20;99.90
40808;DHT22;26523;52.504;13.498;2024-01-10T05:45:25;-9.10;99.90
40808;DHT22;26523;52.504;13.498;2024-01-10T05:47:51;-9.00;99.90
40808;DHT22;26523;52.504;13.498;2024-01-10T05:50:17;-9.00;99.90
40808;DHT22;26523;52.504;13.498;2024-01-10T05:52:43;-9.10;99.90
40808;DHT22;26523;52.504;13.498;2024-01-10T05:55:09;-9.10;99.90
40808;DHT22;26523;52.504;13.498;2024-01-10T05:57:36;-9.10;99.90
40808;DHT22;26523;52.504;13.498;2024-01-10T06:00:02;-9.20;99.90
40808;DHT22;26523;52.504;13.498;2024-01-10T06:02:28;-9.20;99.90
40808;DHT22;26523;52.504;13.498;2024-01-10T06:04:54;-9.20;99.90
40808;DHT22;26523;52.504;13.498;2024-01-10T06:07:19;-9.20;99.90
40808;DHT22;26523;52.504;13.498;2024-01-10T06:09:46;-9.20;99.90
40808;DHT22;26523;52.504;13.498;2024-01-10T06:12:13;-9.20;99.90
40808;DHT22;26523;52.504;13.498;2024-01-10T06:14:39;-9.20;99.90
40808;DHT22;26523;52.504;13.498;2024-01-10T06:17:04;-9.20;99.90
40808;DHT22;26523;52.504;13.498;2024-01-10T06:19:31;-9.20;99.90
40808;DHT22;26523;52.504;13.498;2024-01-10T06:21:57;-9.20;99.90
40808;DHT22;26523;52.504;13.498;2024-01-10T06:24:23;-9.20;99.90
40808;DHT22;26523;52.504;13.498;2024-01-10T06:26:49;-9.20;99.90
40808;DHT22;26523;52.504;13.498;2024-01-10T06:29:18;-9.10;99.90
40808;DHT22;26523;52.504;13.498;2024-01-10T06:31:44;-9.00;99.90
40808;DHT22;26523;52.504;13.498;2024-01-10T06:34:09;-9.10;99.90
40808;DHT22;26523;52.504;13.498;2024-01-10T06:36:35;-9.10;99.90
40808;DHT22;26523;52.504;13.498;2024-01-10T06:39:01;-9.20;99.90
40808;DHT22;26523;52.504;13.498;2024-01-10T06:41:27;-9.20;99.90
40808;DHT22;26523;52.504;13.498;2024-01-10T06:43:53;-9.10;99.90
40808;DHT22;26523;52.504;13.498;2024-01-10T06:46:19;-9.20;99.90
40808;DHT22;26523;52.504;13.498;2024-01-10T06:48:46;-9.20;99.90
40808;DHT22;26523;52.504;13.498;2024-01-10T06:51:15;-9.20;99.90
40808;DHT22;26523;52.504;13.498;2024-01-10T06:53:41;-9.10;99.90
40808;DHT22;26523;52.504;13.498;2024-01-10T06:56:07;-9.10;99.90
40808;DHT22;26523;52.504;13.498;2024-01-10T06:58:35;-9.10;99.90
40808;DHT22;26523;52.504;13.498;2024-01-10T07:01:00;-9.00;99.90
40808;DHT22;26523;52.504;13.498;2024-01-10T07:03:26;-9.00;99.90
40808;DHT22;26523;52.504;13.498;2024-01-10T07:05:52;-9.00;99.90
40808;DHT22;26523;52.504;13.498;2024-01-10T07:08:18;-9.10;99.90
40808;DHT22;26523;52.504;13.498;2024-01-10T07:10:43;-9.10;99.90
40808;DHT22;26523;52.504;13.498;2024-01-10T07:13:10;-9.10;99.90
40808;DHT22;26523;52.504;13.498;2024-01-10T07:15:36;-9.00;99.90
40808;DHT22;26523;52.504;13.498;2024-01-10T07:18:02;-9.00;99.90
40808;DHT22;26523;52.504;13.498;2024-01-10T07:20:28;-9.00;99.90
40808;DHT22;26523;52.504;13.498;2024-01-10T07:22:54;-9.10;99.90
40808;DHT22;26523;52.504;13.498;2024-01-10T07:25:20;-9.10;99.90
40808;DHT22;26523;52.504;13.498;2024-01-10T07:27:47;-9.20;99.90
40808;DHT22;26523;52.504;13.498;2024-01-10T07:30:13;-9.20;99.90
40808;DHT22;26523;52.504;13.498;2024-01-10T07:32:43;-9.20;99.90
40808;DHT22;26523;52.504;13.498;2024-01-10T07:35:10;-9.20;99.90
40808;DHT22;26523;52.504;13.498;2024-01-10T07:37:39;-9.20;99.90
40808;DHT22;26523;52.504;13.498;2024-01-10T07:40:06;-9.10;99.90
40808;DHT22;26523;52.504;13.498;2024-01-10T07:42:33;-8.90;99.90
40808;DHT22;26523;52.504;13.498;2024-01-10T07:45:00;-8.90;99.90
40808;DHT22;26523;52.504;13.498;2024-01-10T07:47:26;-8.80;99.90
40808;DHT22;26523;52.504;13.498;2024-01-10T07:49:51;-8.70;99.90
40808;DHT22;26523;52.504;13.498;2024-01-10T07:52:17;-8.70;99.90
40808;DHT22;26523;52.504;13.498;2024-01-10T07:54:42;-8.80;99.90
40808;DHT22;26523;52.504;13.498;2024-01-10T07:57:08;-8.70;99.90
40808;DHT22;26523;52.504;13.498;2024-01-10T07:59:34;-8.80;99.90
40808;DHT22;26523;52.504;13.498;2024-01-10T08:02:00;-8.80;99.90
40808;DHT22;26523;52.504;13.498;2024-01-10T08:04:29;-8.70;99.90
40808;DHT22;26523;52.504;13.498;2024-01-10T08:06:55;-8.60;99.90
40808;DHT22;26523;52.504;13.498;2024-01-10T08:09:21;-8.60;99.90
40808;DHT22;26523;52.504;13.498;2024-01-10T08:11:47;-8.60;99.90
40808;DHT22;26523;52.504;13.498;2024-01-10T08:14:14;-8.60;99.90
40808;DHT22;26523;52.504;13.498;2024-01-10T08:16:41;-8.40;99.90
40808;DHT22;26523;52.504;13.498;2024-01-10T08:19:07;-8.30;99.90
40808;DHT22;26523;52.504;13.498;2024-01-10T08:21:33;-8.30;99.90
40808;DHT22;26523;52.504;13.498;2024-01-10T08:23:59;-8.30;99.90
40808;DHT22;26523;52.504;13.498;2024-01-10T08:26:26;-8.30;99.90
40808;DHT22;26523;52.504;13.498;2024-01-10T08:28:52;-8.20;99.90
40808;DHT22;26523;52.504;13.498;2024-01-10T08:31:18;-8.10;99.90
40808;DHT22;26523;52.504;13.498;2024-01-10T08:33:44;-7.90;99.90
40808;DHT22;26523;52.504;13.498;2024-01-10T08:36:10;-7.90;99.90
40808;DHT22;26523;52.504;13.498;2024-01-10T08:38:36;-7.90;99.90
40808;DHT22;26523;52.504;13.498;2024-01-10T08:41:02;-7.70;99.90
40808;DHT22;26523;52.504;13.498;2024-01-10T08:43:29;-7.70;99.90
40808;DHT22;26523;52.504;13.498;2024-01-10T08:45:54;-7.60;99.90
40808;DHT22;26523;52.504;13.498;2024-01-10T08:48:20;-7.50;99.90
40808;DHT22;26523;52.504;13.498;2024-01-10T08:50:46;-7.40;99.90
40808;DHT22;26523;52.504;13.498;2024-01-10T08:53:11;-7.40;99.90
40808;DHT22;26523;52.504;13.498;2024-01-10T08:55:37;-7.30;99.90
40808;DHT22;26523;52.504;13.498;2024-01-10T08:58:03;-7.30;99.90
40808;DHT22;26523;52.504;13.498;2024-01-10T09:00:29;-7.20;99.90
40808;DHT22;26523;52.504;13.498;2024-01-10T09:02:55;-7.10;99.90
40808;DHT22;26523;52.504;13.498;2024-01-10T09:05:21;-7.10;99.90
40808;DHT22;26523;52.504;13.498;2024-01-10T09:07:47;-7.10;99.90
40808;DHT22;26523;52.504;13.498;2024-01-10T09:10:13;-7.00;99.90
40808;DHT22;26523;52.504;13.498;2024-01-10T09:12:39;-6.90;99.90
40808;DHT22;26523;52.504;13.498;2024-01-10T09:15:05;-6.80;99.90
40808;DHT22;26523;52.504;13.498;2024-01-10T09:17:33;-6.80;99.90
40808;DHT22;26523;52.504;13.498;2024-01-10T09:19:59;-6.80;99.90
40808;DHT22;26523;52.504;13.498;2024-01-10T09:22:27;-6.60;99.90
40808;DHT22;26523;52.504;13.498;2024-01-10T09:24:53;-6.60;99.90
40808;DHT22;26523;52.504;13.498;2024-01-10T09:27:19;-6.60;99.90
40808;DHT22;26523;52.504;13.498;2024-01-10T09:29:45;-6.60;99.90
40808;DHT22;26523;52.504;13.498;2024-01-10T09:32:10;-6.50;99.90
40808;DHT22;26523;52.504;13.498;2024-01-10T09:34:36;-6.40;99.90
40808;DHT22;26523;52.504;13.498;2024-01-10T09:37:02;-6.40;99.90
40808;DHT22;26523;52.504;13.498;2024-01-10T09:39:27;-6.30;99.90
40808;DHT22;26523;52.504;13.498;2024-01-10T09:41:53;-6.30;99.90
40808;DHT22;26523;52.504;13.498;2024-01-10T09:44:20;-6.20;99.90
40808;DHT22;26523;52.504;13.498;2024-01-10T09:46:51;-6.20;99.90
40808;DHT22;26523;52.504;13.498;2024-01-10T09:49:18;-6.10;99.90
40808;DHT22;26523;52.504;13.498;2024-01-10T09:51:48;-6.00;99.90
40808;DHT22;26523;52.504;13.498;2024-01-10T09:54:15;-5.90;99.90
40808;DHT22;26523;52.504;13.498;2024-01-10T09:56:47;-5.80;99.90
40808;DHT22;26523;52.504;13.498;2024-01-10T09:59:13;-5.70;99.90
40808;DHT22;26523;52.504;13.498;2024-01-10T10:01:39;-5.70;99.90
40808;DHT22;26523;52.504;13.498;2024-01-10T10:04:05;-5.60;99.90
40808;DHT22;26523;52.504;13.498;2024-01-10T10:06:33;-5.60;99.90
40808;DHT22;26523;52.504;13.498;2024-01-10T10:08:59;-5.60;99.90
40808;DHT22;26523;52.504;13.498;2024-01-10T10:11:26;-5.60;99.90
40808;DHT22;26523;52.504;13.498;2024-01-10T10:13:51;-5.50;99.90
40808;DHT22;26523;52.504;13.498;2024-01-10T10:16:23;-5.40;99.90
40808;DHT22;26523;52.504;13.498;2024-01-10T10:18:52;-5.40;99.90
40808;DHT22;26523;52.504;13.498;2024-01-10T10:21:24;-5.30;99.90
40808;DHT22;26523;52.504;13.498;2024-01-10T10:24:01;-5.30;99.90
40808;DHT22;26523;52.504;13.498;2024-01-10T10:26:28;-5.20;99.90
40808;DHT22;26523;52.504;13.498;2024-01-10T10:28:55;-5.20;99.90
40808;DHT22;26523;52.504;13.498;2024-01-10T10:31:21;-5.10;99.90
40808;DHT22;26523;52.504;13.498;2024-01-10T10:33:51;-5.10;99.90
40808;DHT22;26523;52.504;13.498;2024-01-10T10:36:17;-5.00;99.90
40808;DHT22;26523;52.504;13.498;2024-01-10T10:38:48;-4.90;99.90
40808;DHT22;26523;52.504;13.498;2024-01-10T10:41:14;-4.80;99.90
40808;DHT22;26523;52.504;13.498;2024-01-10T10:43:41;-4.70;99.90
40808;DHT22;26523;52.504;13.498;2024-01-10T10:46:08;-4.60;99.90
40808;DHT22;26523;52.504;13.498;2024-01-10T10:48:42;-4.60;99.90
40808;DHT22;26523;52.504;13.498;2024-01-10T10:51:15;-4.50;99.90
40808;DHT22;26523;52.504;13.498;2024-01-10T10:53:44;-4.40;99.90
40808;DHT22;26523;52.504;13.498;2024-01-10T10:56:12;-4.30;99.90
40808;DHT22;26523;52.504;13.498;2024-01-10T11:01:08;-4.20;99.90
40808;DHT22;26523;52.504;13.498;2024-01-10T11:03:35;-4.20;99.90
40808;DHT22;26523;52.504;13.498;2024-01-10T11:06:03;-4.10;99.90
40808;DHT22;26523;52.504;13.498;2024-01-10T11:08:42;-4.00;99.90
40808;DHT22;26523;52.504;13.498;2024-01-10T11:11:39;-4.00;99.90
40808;DHT22;26523;52.504;13.498;2024-01-10T11:14:28;-3.90;99.90
40808;DHT22;26523;52.504;13.498;2024-01-10T11:25:45;-3.70;99.90
40808;DHT22;26523;52.504;13.498;2024-01-10T11:28:12;-3.70;99.90
40808;DHT22;26523;52.504;13.498;2024-01-10T11:30:51;-3.70;99.90
40808;DHT22;26523;52.504;13.498;2024-01-10T11:33:30;-3.70;99.90
40808;DHT22;26523;52.504;13.498;2024-01-10T11:36:18;-3.70;99.90
40808;DHT22;26523;52.504;13.498;2024-01-10T11:38:54;-3.60;99.90
40808;DHT22;26523;52.504;13.498;2024-01-10T11:41:26;-3.50;99.90
40808;DHT22;26523;52.504;13.498;2024-01-10T11:49:17;-3.50;99.90
40808;DHT22;26523;52.504;13.498;2024-01-10T11:51:54;-3.40;99.90
40808;DHT22;26523;52.504;13.498;2024-01-10T11:57:22;-3.30;99.90
40808;DHT22;26523;52.504;13.498;2024-01-10T11:59:57;-3.30;99.90
40808;DHT22;26523;52.504;13.498;2024-01-10T12:02:26;-3.30;99.90
40808;DHT22;26523;52.504;13.498;2024-01-10T12:04:54;-3.20;99.90
40808;DHT22;26523;52.504;13.498;2024-01-10T12:07:20;-3.20;99.90
40808;DHT22;26523;52.504;13.498;2024-01-10T12:09:46;-3.10;99.90
40808;DHT22;26523;52.504;13.498;2024-01-10T12:12:17;-3.10;99.90
40808;DHT22;26523;52.504;13.498;2024-01-10T12:14:43;-3.10;99.90
40808;DHT22;26523;52.504;13.498;2024-01-10T12:17:10;-3.10;99.90
40808;DHT22;26523;52.504;13.498;2024-01-10T12:19:36;-3.00;99.90
40808;DHT22;26523;52.504;13.498;2024-01-10T12:22:07;-2.90;99.90
40808;DHT22;26523;52.504;13.498;2024-01-10T12:24:33;-2.90;99.90
40808;DHT22;26523;52.504;13.498;2024-01-10T12:26:59;-2.90;99.90
40808;DHT22;26523;52.504;13.498;2024-01-10T12:29:25;-2.90;99.90
40808;DHT22;26523;52.504;13.498;2024-01-10T12:31:52;-2.90;99.90
40808;DHT22;26523;52.504;13.498;2024-01-10T12:34:20;-2.90;99.90
40808;DHT22;26523;52.504;13.498;2024-01-10T12:36:47;-2.90;99.80
40808;DHT22;26523;52.504;13.498;2024-01-10T12:39:14;-2.90;99.70
40808;DHT22;26523;52.504;13.498;2024-01-10T12:41:41;-2.80;99.30
40808;DHT22;26523;52.504;13.498;2024-01-10T12:44:10;-2.90;99.90
40808;DHT22;26523;52.504;13.498;2024-01-10T12:46:48;-2.80;99.90
40808;DHT22;26523;52.504;13.498;2024-01-10T12:49:15;-2.80;99.60
40808;DHT22;26523;52.504;13.498;2024-01-10T12:51:41;-2.80;99.90
40808;DHT22;26523;52.504;13.498;2024-01-10T12:54:06;-2.80;99.90
40808;DHT22;26523;52.504;13.498;2024-01-10T12:56:34;-2.80;99.90
40808;DHT22;26523;52.504;13.498;2024-01-10T12:59:00;-2.70;99.90
40808;DHT22;26523;52.504;13.498;2024-01-10T13:01:26;-2.70;99.90
40808;DHT22;26523;52.504;13.498;2024-01-10T13:03:52;-2.70;99.90
40808;DHT22;26523;52.504;13.498;2024-01-10T13:06:18;-2.70;99.90
40808;DHT22;26523;52.504;13.498;2024-01-10T13:08:49;-2.70;99.90
40808;DHT22;26523;52.504;13.498;2024-01-10T13:11:15;-2.70;99.90
40808;DHT22;26523;52.504;13.498;2024-01-10T13:13:41;-2.70;99.90
40808;DHT22;26523;52.504;13.498;2024-01-10T13:16:08;-2.70;99.90
40808;DHT22;26523;52.504;13.498;2024-01-10T13:18:37;-2.70;99.90
40808;DHT22;26523;52.504;13.498;2024-01-10T13:21:03;-2.70;99.90
40808;DHT22;26523;52.504;13.498;2024-01-10T13:23:30;-2.80;99.90
40808;DHT22;26523;52.504;13.498;2024-01-10T13:25:56;-2.80;99.90
40808;DHT22;26523;52.504;13.498;2024-01-10T13:28:22;-2.80;99.90
40808;DHT22;26523;52.504;13.498;2024-01-10T13:30:47;-2.70;99.90
40808;DHT22;26523;52.504;13.498;2024-01-10T13:33:13;-2.60;99.90
40808;DHT22;26523;52.504;13.498;2024-01-10T13:35:39;-2.60;99.90
40808;DHT22;26523;52.504;13.498;2024-01-10T13:38:06;-2.60;99.90
40808;DHT22;26523;52.504;13.498;2024-01-10T13:40:32;-2.60;99.90
40808;DHT22;26523;52.504;13.498;2024-01-10T13:42:59;-2.60;99.90
40808;DHT22;26523;52.504;13.498;2024-01-10T13:45:29;-2.60;99.90
40808;DHT22;26523;52.504;13.498;2024-01-10T13:47:55;-2.60;99.90
40808;DHT22;26523;52.504;13.498;2024-01-10T13:50:21;-2.60;99.90
40808;DHT22;26523;52.504;13.498;2024-01-10T13:52:47;-2.50;99.90
40808;DHT22;26523;52.504;13.498;2024-01-10T13:55:12;-2.50;99.90
40808;DHT22;26523;52.504;13.498;2024-01-10T13:57:38;-2.50;99.90
40808;DHT22;26523;52.504;13.498;2024-01-10T14:00:06;-2.60;99.90
40808;DHT22;26523;52.504;13.498;2024-01-10T14:02:35;-2.60;99.90
40808;DHT22;26523;52.504;13.498;2024-01-10T14:05:03;-2.70;99.90
40808;DHT22;26523;52.504;13.498;2024-01-10T14:07:32;-2.60;99.90
40808;DHT22;26523;52.504;13.498;2024-01-10T14:09:58;-2.60;99.90
40808;DHT22;26523;52.504;13.498;2024-01-10T14:12:24;-2.60;99.90
40808;DHT22;26523;52.504;13.498;2024-01-10T14:14:51;-2.60;99.90
40808;DHT22;26523;52.504;13.498;2024-01-10T14:17:19;-2.60;99.90
40808;DHT22;26523;52.504;13.498;2024-01-10T14:19:44;-2.70;99.90
40808;DHT22;26523;52.504;13.498;2024-01-10T14:22:10;-2.60;99.90
40808;DHT22;26523;52.504;13.498;2024-01-10T14:24:36;-2.70;99.90
40808;DHT22;26523;52.504;13.498;2024-01-10T14:27:04;-2.70;99.90
40808;DHT22;26523;52.504;13.498;2024-01-10T14:29:29;-2.70;99.90
40808;DHT22;26523;52.504;13.498;2024-01-10T14:31:55;-2.70;99.90
40808;DHT22;26523;52.504;13.498;2024-01-10T14:34:21;-2.70;99.90
40808;DHT22;26523;52.504;13.498;2024-01-10T14:36:47;-2.70;99.90
40808;DHT22;26523;52.504;13.498;2024-01-10T14:39:12;-2.70;99.70
40808;DHT22;26523;52.504;13.498;2024-01-10T14:41:39;-2.70;99.50
40808;DHT22;26523;52.504;13.498;2024-01-10T14:44:05;-2.70;99.40
40808;DHT22;26523;52.504;13.498;2024-01-10T14:46:31;-2.80;99.40
40808;DHT22;26523;52.504;13.498;2024-01-10T14:48:57;-2.80;99.70
40808;DHT22;26523;52.504;13.498;2024-01-10T14:51:23;-2.90;99.60
40808;DHT22;26523;52.504;13.498;2024-01-10T14:53:49;-2.90;99.80
40808;DHT22;26523;52.504;13.498;2024-01-10T14:56:17;-2.90;99.90
40808;DHT22;26523;52.504;13.498;2024-01-10T14:58:43;-3.00;99.90
40808;DHT22;26523;52.504;13.498;2024-01-10T15:01:12;-3.00;99.90
40808;DHT22;26523;52.504;13.498;2024-01-10T15:03:38;-3.00;99.90
40808;DHT22;26523;52.504;13.498;2024-01-10T15:06:07;-3.00;99.90
40808;DHT22;26523;52.504;13.498;2024-01-10T15:08:32;-3.00;99.90
40808;DHT22;26523;52.504;13.498;2024-01-10T15:11:06;-3.10;99.90
40808;DHT22;26523;52.504;13.498;2024-01-10T15:13:33;-3.10;99.90
40808;DHT22;26523;52.504;13.498;2024-01-10T15:16:00;-3.20;99.90
40808;DHT22;26523;52.504;13.498;2024-01-10T15:18:27;-3.20;99.90
40808;DHT22;26523;52.504;13.498;2024-01-10T15:20:54;-3.20;99.90
40808;DHT22;26523;52.504;13.498;2024-01-10T15:23:21;-3.20;99.90
40808;DHT22;26523;52.504;13.498;2024-01-10T15:25:46;-3.30;99.90
40808;DHT22;26523;52.504;13.498;2024-01-10T15:28:12;-3.40;99.90
40808;DHT22;26523;52.504;13.498;2024-01-10T15:30:38;-3.40;99.90
40808;DHT22;26523;52.504;13.498;2024-01-10T15:33:04;-3.40;99.90